Time;durP1;ratioP1;P1;durP2;ratioP2;P2;SDS_P1;SDS_P2;PMS_P1;PMS_P2;Temp;Humidity;BMP_temperature;BMP_pressure;BME280_temperature;BME280_humidity;BME280_pressure;Samples;Min_cycle;Max_cycle;Signal;HPM_P1;HPM_P2
2022/07/23 00:00:52;;;;;;;19.60;11.38;;;21.50;99.90;;;;;;5033845;28;20707;-89
2022/07/23 00:03:18;;;;;;;13.80;11.25;;;21.50;99.90;;;;;;5016492;28;20076;-90
2022/07/23 00:05:44;;;;;;;19.95;11.55;;;21.50;99.90;;;;;;5033688;28;20486;-88
2022/07/23 00:08:10;;;;;;;12.48;10.63;;;21.60;99.90;;;;;;5018447;28;20391;-88
2022/07/23 00:10:41;;;;;;;14.65;11.25;;;21.60;99.90;;;;;;5016926;28;20104;-89
2022/07/23 00:13:08;;;;;;;19.20;12.05;;;21.60;99.90;;;;;;5033945;28;20037;-88
2022/07/23 00:15:34;;;;;;;14.90;11.13;;;21.60;99.90;;;;;;5016920;28;20048;-88
2022/07/23 00:18:00;;;;;;;16.77;11.23;;;21.60;99.90;;;;;;5029733;28;20001;-91
2022/07/23 00:20:26;;;;;;;18.70;10.82;;;21.60;99.90;;;;;;5040992;28;20021;-89
2022/07/23 00:23:03;;;;;;;16.38;11.35;;;21.60;99.90;;;;;;5017698;28;20041;-88
2022/07/23 00:25:29;;;;;;;14.23;10.98;;;21.50;99.90;;;;;;5033666;28;20025;-88
2022/07/23 00:27:55;;;;;;;14.57;11.20;;;21.50;99.90;;;;;;5033055;28;20118;-88
2022/07/23 00:30:21;;;;;;;16.25;11.38;;;21.60;99.90;;;;;;5016301;28;20037;-88
2022/07/23 00:32:58;;;;;;;16.63;10.65;;;21.60;99.90;;;;;;5016178;28;20044;-89
2022/07/23 00:35:27;;;;;;;15.90;11.38;;;21.60;99.90;;;;;;5016829;28;20037;-88
2022/07/23 00:37:53;;;;;;;12.95;11.00;;;21.50;99.90;;;;;;5016046;28;20075;-88
2022/07/23 00:40:19;;;;;;;12.57;10.25;;;21.50;99.90;;;;;;5032212;28;20387;-89
2022/07/23 00:42:45;;;;;;;18.77;10.98;;;21.50;99.90;;;;;;5016267;28;20041;-88
2022/07/23 00:45:17;;;;;;;14.52;10.57;;;21.50;99.90;;;;;;5015444;28;20041;-88
2022/07/23 00:47:43;;;;;;;21.80;11.32;;;21.50;99.90;;;;;;5015828;28;20371;-88
2022/07/23 00:50:09;;;;;;;17.52;11.15;;;21.60;99.90;;;;;;5031733;28;20080;-90
2022/07/23 00:52:37;;;;;;;14.85;10.23;;;21.60;99.90;;;;;;5015691;28;20035;-88
2022/07/23 00:55:04;;;;;;;13.68;10.82;;;21.60;99.90;;;;;;5014584;28;20095;-89
2022/07/23 00:57:30;;;;;;;14.32;10.63;;;21.60;99.90;;;;;;5030431;28;20123;-88
2022/07/23 01:00:09;;;;;;;13.05;10.85;;;21.50;99.90;;;;;;5030682;28;20025;-89
2022/07/23 01:02:35;;;;;;;17.40;11.25;;;21.50;99.90;;;;;;5030755;28;20068;-88
2022/07/23 01:05:01;;;;;;;12.80;10.45;;;21.40;99.90;;;;;;5030042;28;20048;-89
2022/07/23 01:07:34;;;;;;;19.30;11.20;;;21.30;99.90;;;;;;5014710;28;20079;-88
2022/07/23 01:10:01;;;;;;;17.33;10.77;;;21.20;99.90;;;;;;5015406;28;20133;-89
2022/07/23 01:12:27;;;;;;;14.05;10.77;;;21.00;99.90;;;;;;5014566;28;20120;-88
2022/07/23 01:14:57;;;;;;;14.90;11.80;;;20.90;99.90;;;;;;5013964;28;20125;-89
2022/07/23 01:17:30;;;;;;;14.15;11.50;;;20.80;99.90;;;;;;5014606;28;20029;-88
2022/07/23 01:19:56;;;;;;;13.43;10.73;;;20.70;99.90;;;;;;5031286;28;20038;-88
2022/07/23 01:22:23;;;;;;;16.80;12.32;;;20.50;99.90;;;;;;5031205;28;20027;-88
2022/07/23 01:24:49;;;;;;;14.65;11.18;;;20.40;99.90;;;;;;5014662;28;20029;-88
2022/07/23 01:27:21;;;;;;;14.60;12.05;;;20.20;99.90;;;;;;5014741;28;20041;-88
2022/07/23 01:29:50;;;;;;;15.48;11.75;;;20.10;99.90;;;;;;5015194;28;20025;-88
2022/07/23 01:32:19;;;;;;;18.33;12.25;;;20.00;99.90;;;;;;5014190;28;20029;-88
2022/07/23 01:34:45;;;;;;;22.73;12.35;;;19.90;99.90;;;;;;5014521;28;20084;-88
2022/07/23 01:37:12;;;;;;;20.70;12.55;;;19.80;99.90;;;;;;5030442;28;20060;-88
2022/07/23 01:39:38;;;;;;;16.45;12.55;;;19.70;99.90;;;;;;5014216;28;20071;-88
2022/07/23 01:42:11;;;;;;;17.23;12.32;;;19.70;99.90;;;;;;5013454;28;20079;-88
2022/07/23 01:44:37;;;;;;;18.60;12.68;;;19.60;99.90;;;;;;5014053;28;20040;-89
2022/07/23 01:47:04;;;;;;;17.63;13.43;;;19.50;99.90;;;;;;5014086;28;20025;-87
2022/07/23 01:49:30;;;;;;;16.05;11.82;;;19.40;99.90;;;;;;5014312;28;20036;-88
2022/07/23 01:52:14;;;;;;;14.25;12.30;;;19.30;99.90;;;;;;5030502;28;20486;-88
2022/07/23 01:54:43;;;;;;;19.83;13.40;;;19.10;99.90;;;;;;5014143;28;20075;-88
2022/07/23 01:57:09;;;;;;;15.48;11.70;;;19.00;99.90;;;;;;5014050;28;20041;-88
2022/07/23 01:59:45;;;;;;;15.43;13.50;;;19.00;99.90;;;;;;5056347;22;20317;-88
2022/07/23 02:02:11;;;;;;;16.70;13.15;;;19.00;99.90;;;;;;5032359;28;20033;-88
2022/07/23 02:04:37;;;;;;;21.60;14.23;;;18.90;99.90;;;;;;5049080;28;20440;-87
2022/07/23 02:07:04;;;;;;;19.67;13.30;;;18.80;99.90;;;;;;5033867;28;20079;-87
2022/07/23 02:09:30;;;;;;;18.25;13.77;;;18.80;99.90;;;;;;5032797;28;20604;-87
2022/07/23 02:12:04;;;;;;;17.98;13.48;;;18.70;99.90;;;;;;5033376;28;20072;-87
2022/07/23 02:14:29;;;;;;;20.60;14.10;;;18.60;99.90;;;;;;5049416;28;20128;-89
2022/07/23 02:16:55;;;;;;;22.00;14.05;;;18.70;99.90;;;;;;5033273;28;20121;-87
2022/07/23 02:19:21;;;;;;;19.00;14.23;;;18.70;99.90;;;;;;5049876;28;20064;-87
2022/07/23 02:21:47;;;;;;;18.38;13.70;;;18.70;99.90;;;;;;5032722;28;20021;-87
2022/07/23 02:24:20;;;;;;;17.83;12.85;;;18.80;99.90;;;;;;5033013;28;20033;-88
2022/07/23 02:26:46;;;;;;;17.05;14.20;;;18.90;99.90;;;;;;5032991;28;20025;-88
2022/07/23 02:29:12;;;;;;;20.20;13.93;;;18.90;99.90;;;;;;5049453;28;20028;-88
2022/07/23 02:31:39;;;;;;;15.88;13.85;;;19.00;99.90;;;;;;5033150;28;20060;-87
2022/07/23 02:34:05;;;;;;;19.27;13.95;;;19.10;99.90;;;;;;5033312;28;20421;-88
2022/07/23 02:36:39;;;;;;;19.50;13.13;;;19.20;99.90;;;;;;5032255;28;20394;-88
2022/07/23 02:39:06;;;;;;;17.60;13.80;;;19.20;99.90;;;;;;5032680;28;20051;-88
2022/07/23 02:41:33;;;;;;;20.70;12.90;;;19.30;99.90;;;;;;5048743;28;20486;-88
2022/07/23 02:43:59;;;;;;;20.50;14.38;;;19.20;99.90;;;;;;5032449;28;20025;-87
2022/07/23 02:46:26;;;;;;;22.52;14.55;;;19.10;99.90;;;;;;5034409;28;20025;-88
2022/07/23 02:48:58;;;;;;;22.67;14.95;;;19.20;99.90;;;;;;5033070;28;20021;-88
2022/07/23 02:51:24;;;;;;;20.52;14.95;;;19.30;99.90;;;;;;5049396;28;20063;-88
2022/07/23 02:53:55;;;;;;;21.30;13.98;;;19.40;99.90;;;;;;5049085;28;20060;-89
2022/07/23 02:56:21;;;;;;;19.67;14.23;;;19.40;99.90;;;;;;5049159;28;20055;-87
2022/07/23 02:58:56;;;;;;;23.27;14.93;;;19.40;99.90;;;;;;5032771;28;20039;-88
2022/07/23 03:01:21;;;;;;;22.45;14.95;;;19.30;99.90;;;;;;5048547;28;20055;-88
2022/07/23 03:03:47;;;;;;;21.98;15.05;;;19.40;99.90;;;;;;5048453;28;20123;-88
2022/07/23 03:06:13;;;;;;;21.50;14.18;;;19.40;99.90;;;;;;5049009;28;20028;-88
2022/07/23 03:08:40;;;;;;;22.40;15.65;;;19.30;99.90;;;;;;5032211;28;20357;-88
2022/07/23 03:11:13;;;;;;;17.67;14.40;;;19.20;99.90;;;;;;5033291;28;20057;-88
2022/07/23 03:13:41;;;;;;;19.23;13.88;;;19.10;99.90;;;;;;5032333;28;20112;-88
2022/07/23 03:16:07;;;;;;;16.70;14.43;;;19.10;99.90;;;;;;5032171;28;20021;-88
2022/07/23 03:18:36;;;;;;;23.95;14.63;;;19.10;99.90;;;;;;5032601;28;20041;-89
2022/07/23 03:21:14;;;;;;;20.15;14.80;;;19.10;99.90;;;;;;5033687;28;20037;-90
2022/07/23 03:23:40;;;;;;;19.88;14.23;;;19.10;99.90;;;;;;5036649;28;20053;-88
2022/07/23 03:26:06;;;;;;;26.30;19.80;;;19.10;99.90;;;;;;5037202;28;20055;-88
2022/07/23 03:28:32;;;;;;;132.63;68.43;;;19.10;99.90;;;;;;5053004;28;20122;-89
2022/07/23 03:30:58;;;;;;;23.30;16.10;;;19.10;99.90;;;;;;5037572;28;20410;-89
2022/07/23 03:33:31;;;;;;;21.77;15.50;;;19.10;99.90;;;;;;5036042;28;20120;-88
2022/07/23 03:35:58;;;;;;;22.77;15.18;;;19.10;99.90;;;;;;5036863;28;20110;-90
2022/07/23 03:38:27;;;;;;;27.00;14.45;;;19.10;99.90;;;;;;5037213;28;20033;-88
2022/07/23 03:40:53;;;;;;;25.48;14.60;;;19.10;99.90;;;;;;5036723;28;20032;-88
2022/07/23 03:43:21;;;;;;;19.48;14.77;;;19.20;99.90;;;;;;5035352;28;20728;-89
2022/07/23 03:45:49;;;;;;;21.70;14.47;;;19.20;99.90;;;;;;5026733;28;20026;-89
2022/07/23 03:48:15;;;;;;;19.88;15.52;;;19.20;99.90;;;;;;5031344;28;20033;-89
2022/07/23 03:50:41;;;;;;;18.60;14.73;;;19.20;99.90;;;;;;5016568;28;20072;-89
2022/07/23 03:53:07;;;;;;;19.83;14.43;;;19.20;99.90;;;;;;5016669;28;20036;-89
2022/07/23 03:55:34;;;;;;;17.83;14.10;;;19.20;99.90;;;;;;5016777;28;20068;-89
2022/07/23 03:58:07;;;;;;;21.55;14.07;;;19.20;99.90;;;;;;5017560;28;20117;-88
2022/07/23 04:00:33;;;;;;;18.20;13.70;;;19.20;99.90;;;;;;5032835;28;20045;-88
2022/07/23 04:02:59;;;;;;;28.85;13.25;;;19.20;99.90;;;;;;5032951;28;20044;-88
2022/07/23 04:05:26;;;;;;;19.58;13.80;;;19.20;99.90;;;;;;5032817;28;20053;-89
2022/07/23 04:08:04;;;;;;;18.48;12.07;;;19.20;99.90;;;;;;5034473;28;20033;-89
2022/07/23 04:10:31;;;;;;;;;;;19.30;99.90;;;;;;5055291;28;20017;-91
2022/07/23 04:12:56;;;;;;;18.95;13.32;;;19.40;99.90;;;;;;5041674;28;19932;-88
2022/07/23 04:15:22;;;;;;;16.77;12.48;;;19.40;99.90;;;;;;5018429;28;20037;-88
2022/07/23 04:17:48;;;;;;;15.25;11.95;;;19.30;99.90;;;;;;5034154;28;20116;-87
2022/07/23 04:20:22;;;;;;;18.58;13.65;;;19.40;99.90;;;;;;5032925;28;20060;-89
2022/07/23 04:22:54;;;;;;;19.00;13.25;;;19.40;99.90;;;;;;5032977;28;20044;-88
2022/07/23 04:25:20;;;;;;;19.05;13.88;;;19.40;99.90;;;;;;5032550;28;20037;-89
2022/07/23 04:27:46;;;;;;;22.15;15.27;;;19.30;99.90;;;;;;5016252;28;20052;-88
2022/07/23 04:30:20;;;;;;;17.17;14.93;;;19.30;99.90;;;;;;5032876;28;20033;-88
2022/07/23 04:32:46;;;;;;;17.85;13.73;;;19.30;99.90;;;;;;5033427;28;20029;-88
2022/07/23 04:35:19;;;;;;;19.67;14.70;;;19.30;99.90;;;;;;5033877;28;20029;-87
2022/07/23 04:37:45;;;;;;;20.98;14.77;;;19.40;99.90;;;;;;5032613;28;20103;-89
2022/07/23 04:40:21;;;;;;;18.17;13.98;;;19.50;99.90;;;;;;5033076;28;20040;-89
2022/07/23 04:42:47;;;;;;;16.45;13.88;;;19.50;99.90;;;;;;5032996;28;20037;-90
2022/07/23 04:45:13;;;;;;;15.85;13.23;;;19.40;99.90;;;;;;5032698;28;20062;-88
2022/07/23 04:47:39;;;;;;;17.10;13.38;;;19.40;99.90;;;;;;5032965;28;20029;-91
2022/07/23 04:50:05;;;;;;;16.75;14.15;;;19.30;99.90;;;;;;5032685;28;20047;-88
2022/07/23 04:52:38;;;;;;;22.65;14.05;;;19.20;99.90;;;;;;5031593;28;20045;-87
2022/07/23 04:55:04;;;;;;;21.20;15.68;;;19.00;99.90;;;;;;5032250;28;20065;-88
2022/07/23 04:57:30;;;;;;;19.50;15.35;;;18.70;99.90;;;;;;5034634;28;20030;-89
2022/07/23 04:59:56;;;;;;;22.60;16.20;;;18.40;99.90;;;;;;5016962;28;20435;-89
2022/07/23 05:02:21;;;;;;;27.13;18.30;;;18.10;99.90;;;;;;5051304;28;20051;-89
2022/07/23 05:04:56;;;;;;;25.92;17.77;;;17.90;99.90;;;;;;5035396;28;20449;-90
2022/07/23 05:07:22;;;;;;;23.65;16.98;;;17.70;99.90;;;;;;5034635;28;20025;-89
2022/07/23 05:09:48;;;;;;;24.10;19.02;;;17.60;99.90;;;;;;5034639;28;20092;-89
2022/07/23 05:12:14;;;;;;;20.20;16.08;;;17.50;99.90;;;;;;5032922;28;20060;-89
2022/07/23 05:14:42;;;;;;;21.08;16.75;;;17.40;99.90;;;;;;5033937;28;20042;-89
2022/07/23 05:17:15;;;;;;;22.25;17.00;;;17.40;99.90;;;;;;5016537;28;20025;-89
2022/07/23 05:19:41;;;;;;;25.30;17.92;;;17.40;99.90;;;;;;5033370;28;20053;-89
2022/07/23 05:22:07;;;;;;;21.55;16.30;;;17.50;99.90;;;;;;5033319;28;20095;-89
2022/07/23 05:24:33;;;;;;;21.33;16.40;;;17.70;99.90;;;;;;5033297;28;20087;-88
2022/07/23 05:26:59;;;;;;;28.52;16.92;;;17.90;99.90;;;;;;5032259;28;20446;-88
2022/07/23 05:29:34;;;;;;;19.85;15.43;;;18.00;99.90;;;;;;5032131;28;20128;-87
2022/07/23 05:32:00;;;;;;;24.20;17.63;;;18.10;99.90;;;;;;5031044;28;20056;-89
2022/07/23 05:34:27;;;;;;;24.67;18.00;;;18.10;99.90;;;;;;5031448;28;20026;-89
2022/07/23 05:36:53;;;;;;;25.73;18.42;;;18.00;99.90;;;;;;5047663;28;20453;-88
2022/07/23 05:39:20;;;;;;;31.73;18.02;;;18.00;99.90;;;;;;5015820;28;20505;-88
2022/07/23 05:41:50;;;;;;;24.60;17.95;;;18.00;99.90;;;;;;5031530;28;20029;-87
2022/07/23 05:44:16;;;;;;;27.17;16.88;;;17.90;99.90;;;;;;5031657;28;20068;-88
2022/07/23 05:46:43;;;;;;;23.63;17.85;;;17.80;99.90;;;;;;5026397;28;20036;-87
2022/07/23 05:49:13;;;;;;;22.80;18.70;;;17.80;99.90;;;;;;5041089;28;20059;-88
2022/07/23 05:51:58;;;;;;;23.60;17.30;;;17.80;99.90;;;;;;5039091;23;20517;-88
2022/07/23 05:54:46;;;;;;;21.17;16.08;;;17.80;99.90;;;;;;5016905;28;20042;-86
2022/07/23 05:57:12;;;;;;;24.38;14.65;;;17.90;99.90;;;;;;5012557;28;20038;-86
2022/07/23 05:59:38;;;;;;;23.95;15.50;;;18.00;99.90;;;;;;5016646;28;20037;-87
2022/07/23 06:02:03;;;;;;;21.27;16.08;;;18.00;99.90;;;;;;5010091;28;20046;-88
2022/07/23 06:04:29;;;;;;;20.55;13.77;;;18.00;99.90;;;;;;5008550;28;20030;-87
2022/07/23 06:07:14;;;;;;;30.48;14.73;;;18.00;99.90;;;;;;5016732;28;20048;-91
2022/07/23 06:09:41;;;;;;;38.03;15.90;;;18.10;99.90;;;;;;5011742;28;20085;-90
2022/07/23 06:12:09;;;;;;;15.40;12.30;;;18.20;99.90;;;;;;5021879;28;20041;-91
2022/07/23 06:14:38;;;;;;;19.33;13.52;;;18.10;99.90;;;;;;5007402;28;20049;-87
2022/07/23 06:17:04;;;;;;;17.08;12.02;;;18.00;99.90;;;;;;5006501;28;20361;-88
2022/07/23 06:19:30;;;;;;;19.60;11.57;;;18.10;99.90;;;;;;4999552;28;20018;-88
2022/07/23 06:21:56;;;;;;;20.65;12.25;;;18.20;99.90;;;;;;4997152;28;20037;-87
2022/07/23 06:24:22;;;;;;;16.55;12.35;;;18.30;99.90;;;;;;4997057;28;20371;-88
2022/07/23 06:27:00;;;;;;;14.68;11.27;;;18.50;99.90;;;;;;4989049;28;20037;-87
2022/07/23 06:29:26;;;;;;;15.45;12.32;;;18.80;99.90;;;;;;5005409;28;20035;-86
2022/07/23 06:31:51;;;;;;;18.88;12.18;;;19.10;99.90;;;;;;4993847;28;20034;-86
2022/07/23 06:34:17;;;;;;;13.80;10.48;;;19.40;99.90;;;;;;4995371;28;20033;-87
2022/07/23 06:36:43;;;;;;;14.75;11.30;;;19.70;99.90;;;;;;4996168;28;20030;-87
2022/07/23 06:39:16;;;;;;;14.63;11.32;;;19.80;99.90;;;;;;4996484;28;20029;-87
2022/07/23 06:41:46;;;;;;;16.92;14.02;;;20.10;99.90;;;;;;4990176;28;20053;-87
2022/07/23 06:44:12;;;;;;;29.77;11.68;;;20.20;99.90;;;;;;5007660;28;20030;-88
2022/07/23 06:46:40;;;;;;;44.38;12.60;;;20.40;99.90;;;;;;4993413;28;20124;-87
2022/07/23 06:49:13;;;;;;;16.98;9.73;;;20.40;99.90;;;;;;4995700;28;20109;-89
2022/07/23 06:51:39;;;;;;;11.73;9.90;;;20.20;99.90;;;;;;5006978;28;20041;-86
2022/07/23 06:54:05;;;;;;;15.43;9.57;;;20.10;99.90;;;;;;4996568;28;20089;-88
2022/07/23 06:56:31;;;;;;;14.35;9.02;;;20.10;99.90;;;;;;4998976;28;20040;-88
2022/07/23 06:58:56;;;;;;;13.50;10.10;;;20.20;99.90;;;;;;5024079;28;20062;-88
2022/07/23 07:01:22;;;;;;;14.07;9.25;;;20.10;99.90;;;;;;4997580;28;20037;-89
2022/07/23 07:03:54;;;;;;;11.38;9.23;;;20.20;99.90;;;;;;4998577;28;20483;-87
2022/07/23 07:06:20;;;;;;;14.00;9.57;;;20.10;99.90;;;;;;4983027;28;20453;-86
2022/07/23 07:08:46;;;;;;;13.02;9.55;;;20.10;99.90;;;;;;4991666;28;20037;-88
2022/07/23 07:11:12;;;;;;;14.88;10.45;;;19.90;99.90;;;;;;4999344;28;20037;-87
2022/07/23 07:13:38;;;;;;;16.70;10.10;;;19.80;99.90;;;;;;4990791;28;20061;-87
2022/07/23 07:16:13;;;;;;;12.13;9.98;;;20.00;99.90;;;;;;4986130;28;20029;-88
2022/07/23 07:18:39;;;;;;;15.32;10.38;;;19.80;99.90;;;;;;4995472;28;20025;-87
2022/07/23 07:21:05;;;;;;;15.50;10.27;;;19.70;99.90;;;;;;4994330;28;20027;-87
2022/07/23 07:23:31;;;;;;;15.70;10.57;;;19.60;99.90;;;;;;4986583;28;20042;-87
2022/07/23 07:25:56;;;;;;;11.68;9.85;;;19.70;99.90;;;;;;4991954;28;20090;-87
2022/07/23 07:28:29;;;;;;;15.00;10.65;;;19.80;99.90;;;;;;5010387;28;20025;-88
2022/07/23 07:30:55;;;;;;;15.35;10.48;;;20.00;99.90;;;;;;5006540;28;20053;-87
2022/07/23 07:33:21;;;;;;;18.70;10.43;;;20.00;99.90;;;;;;5012269;28;20236;-87
2022/07/23 07:35:47;;;;;;;12.23;9.57;;;20.00;99.90;;;;;;5013191;28;20049;-87
2022/07/23 07:38:13;;;;;;;17.30;10.27;;;20.40;99.90;;;;;;5017312;28;20061;-87
2022/07/23 07:40:43;;;;;;;12.73;10.23;;;20.60;99.90;;;;;;5013650;28;20041;-88
2022/07/23 07:43:09;;;;;;;14.07;9.55;;;20.80;99.90;;;;;;4997736;28;20042;-87
2022/07/23 07:45:35;;;;;;;14.30;10.05;;;20.90;99.90;;;;;;4997630;28;20049;-86
2022/07/23 07:48:01;;;;;;;13.43;10.23;;;21.20;99.90;;;;;;4998108;28;20025;-87
2022/07/23 07:50:26;;;;;;;12.00;9.70;;;21.60;99.90;;;;;;5014482;28;20056;-88
2022/07/23 07:52:52;;;;;;;13.70;10.45;;;21.80;99.90;;;;;;4999164;28;20030;-87
2022/07/23 07:55:26;;;;;;;15.88;9.63;;;22.00;99.90;;;;;;4997034;28;20060;-88
2022/07/23 07:57:52;;;;;;;13.43;9.68;;;21.70;99.90;;;;;;5013489;28;20537;-89
2022/07/23 08:00:18;;;;;;;44.15;11.38;;;21.60;99.90;;;;;;4996868;28;20042;-88
2022/07/23 08:02:50;;;;;;;11.52;9.98;;;21.80;99.90;;;;;;5011638;28;20029;-87
2022/07/23 08:05:23;;;;;;;9.70;8.70;;;22.20;99.90;;;;;;4995660;28;20038;-88
2022/07/23 08:07:49;;;;;;;11.93;8.88;;;23.30;99.90;;;;;;5012735;28;20038;-88
2022/07/23 08:10:15;;;;;;;14.65;9.20;;;23.50;99.90;;;;;;4999645;28;20018;-88
2022/07/23 08:12:45;;;;;;;17.50;9.40;;;23.10;99.90;;;;;;4991887;28;20064;-87
2022/07/23 08:15:23;;;;;;;18.45;10.43;;;22.80;99.90;;;;;;4998497;28;20130;-87
2022/07/23 08:17:49;;;;;;;19.50;9.95;;;22.70;99.90;;;;;;4981405;28;20066;-89
2022/07/23 08:20:17;;;;;;;13.25;10.73;;;22.90;99.90;;;;;;4995538;28;20042;-89
2022/07/23 08:22:58;;;;;;;14.68;10.05;;;23.10;99.90;;;;;;4977110;28;20034;-87
2022/07/23 08:25:30;;;;;;;10.10;9.10;;;23.60;99.90;;;;;;4977078;28;20027;-88
2022/07/23 08:27:57;;;;;;;13.23;9.68;;;24.60;99.90;;;;;;4994506;28;20484;-88
2022/07/23 08:30:23;;;;;;;12.15;9.38;;;25.40;99.90;;;;;;4977427;28;20057;-88
2022/07/23 08:33:07;;;;;;;15.05;9.30;;;26.00;99.90;;;;;;4993612;28;20042;-87
2022/07/23 08:35:39;;;;;;;12.82;9.73;;;26.40;99.90;;;;;;4977133;28;20034;-87
2022/07/23 08:38:19;;;;;;;22.45;10.93;;;26.40;99.90;;;;;;5007435;28;20029;-88
2022/07/23 08:40:59;;;;;;;13.00;9.45;;;25.60;99.90;;;;;;5013362;28;20033;-88
2022/07/23 08:43:34;;;;;;;11.98;9.52;;;24.60;99.90;;;;;;5013172;28;20029;-88
2022/07/23 08:46:01;;;;;;;13.00;10.27;;;23.80;99.90;;;;;;5014317;28;20034;-88
2022/07/23 08:48:36;;;;;;;13.13;10.25;;;23.40;99.90;;;;;;5012857;28;20367;-88
2022/07/23 08:51:12;;;;;;;18.30;10.20;;;23.10;99.90;;;;;;5013939;28;20557;-87
2022/07/23 08:53:40;;;;;;;14.57;10.10;;;23.10;99.90;;;;;;5012961;28;20554;-86
2022/07/23 08:56:06;;;;;;;13.15;9.75;;;23.90;99.90;;;;;;5013699;28;20470;-87
2022/07/23 08:58:32;;;;;;;12.13;10.02;;;25.20;99.90;;;;;;5012683;28;20030;-88
2022/07/23 09:01:15;;;;;;;13.02;9.73;;;25.70;99.90;;;;;;5011696;28;20034;-87
2022/07/23 09:03:44;;;;;;;13.70;10.52;;;25.40;99.90;;;;;;4996438;28;20060;-89
2022/07/23 09:06:10;;;;;;;15.68;11.40;;;25.00;99.90;;;;;;4996786;28;20006;-89
2022/07/23 09:08:40;;;;;;;26.50;11.82;;;24.50;99.90;;;;;;4979210;28;20034;-86
2022/07/23 09:11:11;;;;;;;12.48;10.52;;;24.40;99.90;;;;;;4993714;28;20030;-88
2022/07/23 09:13:58;;;;;;;15.75;10.88;;;24.10;99.90;;;;;;4976725;28;20034;-89
2022/07/23 09:16:27;;;;;;;12.98;10.18;;;25.00;99.90;;;;;;4978539;28;20129;-88
2022/07/23 09:19:01;;;;;;;13.75;9.75;;;25.80;99.90;;;;;;4994967;28;20031;-88
2022/07/23 09:21:47;;;;;;;14.95;10.55;;;26.10;99.90;;;;;;4993798;28;20030;-88
2022/07/23 09:24:17;;;;;;;16.48;10.85;;;26.80;99.90;;;;;;4993316;28;20034;-89
2022/07/23 09:26:51;;;;;;;18.40;10.23;;;27.10;99.90;;;;;;4990439;28;20042;-89
2022/07/23 09:29:22;;;;;;;14.68;10.57;;;26.50;99.90;;;;;;4979528;28;20073;-89
2022/07/23 09:31:57;;;;;;;12.85;10.18;;;26.10;99.90;;;;;;4979196;28;20038;-90
2022/07/23 09:34:32;;;;;;;13.18;10.63;;;25.50;99.90;;;;;;4976899;28;20026;-90
2022/07/23 09:37:15;;;;;;;22.13;10.23;;;25.20;99.90;;;;;;4996179;28;20057;-87
2022/07/23 09:39:50;;;;;;;12.70;10.50;;;25.70;99.90;;;;;;4980659;28;20034;-89
2022/07/23 09:42:18;;;;;;;14.20;10.40;;;26.40;99.90;;;;;;4977980;28;20480;-90
2022/07/23 09:44:47;;;;;;;12.45;9.43;;;27.10;99.90;;;;;;4995112;28;20018;-88
2022/07/23 09:47:23;;;;;;;10.60;9.50;;;28.20;99.90;;;;;;4994456;28;20026;-86
2022/07/23 09:50:16;;;;;;;14.77;9.18;;;29.20;99.90;;;;;;5005101;28;20018;-89
2022/07/23 09:52:43;;;;;;;10.20;9.10;;;28.90;99.90;;;;;;5006014;28;20061;-88
2022/07/23 09:55:09;;;;;;;14.85;9.23;;;27.40;99.90;;;;;;4997466;28;20062;-89
2022/07/23 09:57:35;;;;;;;10.95;8.95;;;26.60;99.90;;;;;;5003626;28;20052;-88
2022/07/23 10:00:05;;;;;;;13.25;9.98;;;26.00;99.90;;;;;;4996602;28;20633;-90
2022/07/23 10:02:35;;;;;;;12.63;10.63;;;26.00;99.90;;;;;;4995492;28;20034;-90
2022/07/23 10:05:20;;;;;;;15.43;10.15;;;26.00;99.90;;;;;;5013015;28;20064;-89
2022/07/23 10:08:10;;;;;;;11.93;9.75;;;26.40;99.90;;;;;;5013488;28;20042;-88
2022/07/23 10:10:58;;;;;;;11.05;9.27;;;26.60;99.90;;;;;;5012647;28;20175;-89
2022/07/23 10:16:10;;;;;;;14.45;10.85;;;26.60;99.90;;;;;;5011114;28;20028;-89
2022/07/23 10:18:36;;;;;;;15.50;9.77;;;26.80;99.90;;;;;;5011549;28;20029;-89
2022/07/23 10:21:07;;;;;;;11.38;9.90;;;27.30;99.90;;;;;;4995558;28;20566;-88
2022/07/23 10:24:02;;;;;;;13.48;10.55;;;27.00;99.90;;;;;;4993465;28;20083;-90
2022/07/23 10:26:33;;;;;;;15.55;10.88;;;27.00;99.90;;;;;;5009483;28;20034;-88
2022/07/23 10:29:31;;;;;;;;;;;26.80;99.90;;;;;;5010600;28;20033;-90
2022/07/23 10:32:04;;;;;;;15.68;10.32;;;26.60;99.90;;;;;;5001854;28;20000;-90
2022/07/23 10:35:31;;;;;;;14.60;9.88;;;26.50;99.90;;;;;;5010115;28;20030;-90
2022/07/23 10:38:23;;;;;;;13.95;10.13;;;26.80;99.90;;;;;;4930263;29;20039;-91
2022/07/23 10:41:00;;;;;;;14.38;9.55;;;26.80;99.90;;;;;;4926239;29;20036;-89
2022/07/23 10:43:27;;;;;;;10.68;9.57;;;26.80;99.90;;;;;;4966710;28;20057;-88
2022/07/23 10:45:56;;;;;;;12.50;9.68;;;27.20;99.90;;;;;;5008879;28;20509;-88
2022/07/23 10:48:29;;;;;;;10.70;9.32;;;27.30;99.90;;;;;;5009704;28;20552;-89
2022/07/23 10:51:14;;;;;;;13.77;9.45;;;27.60;99.90;;;;;;5009520;28;20038;-89
2022/07/23 10:53:49;;;;;;;10.73;9.63;;;27.50;99.90;;;;;;5009348;28;20372;-89
2022/07/23 10:56:15;;;;;;;10.60;9.52;;;27.50;99.90;;;;;;5010003;28;20745;-88
2022/07/23 10:58:50;;;;;;;13.63;10.00;;;27.80;99.90;;;;;;4993289;28;20034;-89
2022/07/23 11:01:33;;;;;;;11.27;9.27;;;28.10;99.90;;;;;;5009113;28;20034;-89
2022/07/23 11:04:06;;;;;;;12.45;9.45;;;28.60;99.90;;;;;;4993355;28;20133;-89
2022/07/23 11:06:50;;;;;;;12.23;9.65;;;29.10;99.90;;;;;;4995742;28;20394;-91
2022/07/23 11:09:30;;;;;;;14.07;10.25;;;29.70;99.90;;;;;;5011602;28;20037;-90
2022/07/23 11:12:22;;;;;;;16.65;10.27;;;28.90;99.90;;;;;;5011016;28;20034;-89
2022/07/23 11:15:06;;;;;;;11.88;9.27;;;29.00;99.90;;;;;;4998765;28;20069;-89
2022/07/23 11:17:36;;;;;;;11.57;8.77;;;29.30;99.90;;;;;;4999115;28;20034;-90
2022/07/23 11:20:08;;;;;;;;;;;29.70;99.90;;;;;;4996195;28;20045;-89
2022/07/23 11:22:50;;;;;;;11.38;9.63;;;29.90;99.90;;;;;;4996305;28;19917;-90
2022/07/23 11:25:22;;;;;;;14.27;9.05;;;29.60;99.90;;;;;;5010158;28;20038;-88
2022/07/23 11:27:50;;;;;;;10.88;8.48;;;29.30;99.90;;;;;;4995404;28;20049;-91
2022/07/23 11:30:28;;;;;;;11.10;9.30;;;29.60;99.90;;;;;;5011465;28;20108;-89
2022/07/23 11:33:09;;;;;;;10.88;9.38;;;30.10;99.90;;;;;;4994625;28;20061;-90
2022/07/23 11:35:36;;;;;;;10.52;8.25;;;30.00;99.90;;;;;;4995808;28;20479;-90
2022/07/23 11:38:18;;;;;;;9.88;8.20;;;30.80;99.90;;;;;;4995011;28;20034;-91
2022/07/23 11:40:47;;;;;;;11.45;8.70;;;31.00;99.90;;;;;;4994848;28;20057;-90
2022/07/23 11:43:14;;;;;;;10.73;8.80;;;31.60;99.90;;;;;;4995771;28;20029;-89
2022/07/23 11:45:44;;;;;;;10.05;9.00;;;31.60;99.90;;;;;;4992462;28;20086;-89
2022/07/23 11:48:23;;;;;;;8.70;7.80;;;31.20;99.90;;;;;;4995600;28;20026;-92
2022/07/23 11:50:50;;;;;;;11.15;8.30;;;31.50;99.90;;;;;;4995524;28;20030;-90
2022/07/23 11:53:29;;;;;;;12.10;8.38;;;31.40;99.80;;;;;;4995730;28;20089;-87
2022/07/23 11:56:15;;;;;;;13.95;9.40;;;30.60;99.20;;;;;;4993181;28;20498;-89
2022/07/23 11:58:55;;;;;;;10.45;8.25;;;29.90;99.80;;;;;;4994018;28;20058;-88
2022/07/23 12:01:21;;;;;;;12.90;9.00;;;29.10;99.90;;;;;;4993463;28;20214;-89
2022/07/23 12:03:52;;;;;;;11.10;9.25;;;28.70;99.90;;;;;;4994726;28;20552;-88
2022/07/23 12:06:18;;;;;;;16.00;9.30;;;28.90;99.90;;;;;;4994185;28;20068;-90
2022/07/23 12:08:44;;;;;;;12.80;8.80;;;29.00;99.90;;;;;;4977735;28;20062;-89
2022/07/23 12:11:12;;;;;;;14.25;9.93;;;28.60;99.90;;;;;;5014418;28;20019;-88
2022/07/23 12:13:38;;;;;;;13.38;9.15;;;28.30;99.90;;;;;;4992940;28;20543;-87
2022/07/23 12:16:05;;;;;;;9.27;8.38;;;28.00;99.90;;;;;;4994617;28;20114;-87
2022/07/23 12:18:31;;;;;;;11.18;8.90;;;27.90;99.90;;;;;;4994034;28;20079;-90
2022/07/23 12:20:58;;;;;;;13.05;9.98;;;28.30;99.90;;;;;;4996223;28;20023;-87
2022/07/23 12:23:26;;;;;;;10.65;8.80;;;28.50;99.90;;;;;;4979322;28;20030;-88
2022/07/23 12:25:52;;;;;;;9.40;7.97;;;28.50;99.90;;;;;;4995033;28;20322;-89
2022/07/23 12:28:32;;;;;;;13.25;8.55;;;29.00;99.90;;;;;;4977909;28;20125;-86
2022/07/23 12:30:59;;;;;;;14.75;8.60;;;29.90;99.90;;;;;;4977878;28;20125;-87
2022/07/23 12:33:35;;;;;;;13.77;8.23;;;30.10;99.70;;;;;;4978185;28;20144;-87
2022/07/23 12:36:06;;;;;;;11.50;8.00;;;30.60;99.30;;;;;;4993047;28;20062;-88
2022/07/23 12:38:49;;;;;;;12.68;9.05;;;30.70;98.60;;;;;;4991827;28;20042;-87
2022/07/23 12:41:24;;;;;;;10.90;8.25;;;30.10;98.60;;;;;;4976752;28;20038;-87
2022/07/23 12:43:50;;;;;;;8.73;7.50;;;30.10;98.70;;;;;;4975372;28;20033;-87
2022/07/23 12:46:20;;;;;;;8.60;7.70;;;30.80;97.50;;;;;;4992958;28;20425;-89
2022/07/23 12:48:51;;;;;;;13.07;8.07;;;31.40;96.50;;;;;;4978135;28;20034;-88